createdAt,value
2022-11-06T00:01:23.236Z,21.28
2022-11-06T00:04:38.143Z,22.63
2022-11-06T00:07:53.194Z,22.90
2022-11-06T00:11:05.346Z,21.53
2022-11-06T00:14:18.245Z,22.58
2022-11-06T00:17:30.453Z,22.28
2022-11-06T00:20:42.796Z,21.53
2022-11-06T00:23:56.270Z,23.58
2022-11-06T00:27:08.535Z,21.73
2022-11-06T00:30:21.251Z,23.33
2022-11-06T00:33:33.337Z,22.03
2022-11-06T00:36:45.508Z,22.88
2022-11-06T00:39:59.397Z,23.18
2022-11-06T00:43:11.485Z,23.90
2022-11-06T00:46:25.032Z,24.03
2022-11-06T00:49:37.287Z,24.78
2022-11-06T00:52:49.720Z,23.95
2022-11-06T00:56:03.926Z,23.30
2022-11-06T00:59:19.185Z,24.18
2022-11-06T01:02:31.288Z,23.20
2022-11-06T01:05:43.612Z,22.53
2022-11-06T01:08:57.100Z,23.35
2022-11-06T01:12:13.300Z,22.78
2022-11-06T01:15:24.829Z,23.15
2022-11-06T01:18:36.962Z,22.53
2022-11-06T01:21:52.692Z,23.63
2022-11-06T01:25:04.690Z,21.90
2022-11-06T01:28:20.175Z,22.05
2022-11-06T01:31:35.735Z,21.03
2022-11-06T01:34:48.214Z,22.65
2022-11-06T01:38:00.353Z,22.08
2022-11-06T01:41:13.115Z,22.13
2022-11-06T01:45:35.706Z,21.53
2022-11-06T01:48:52.877Z,20.58
2022-11-06T01:52:10.063Z,21.38
2022-11-06T01:58:40.750Z,20.05
2022-11-06T02:01:55.159Z,20.48
2022-11-06T02:05:08.044Z,21.95
2022-11-06T02:08:23.438Z,22.23
2022-11-06T02:11:35.971Z,23.13
2022-11-06T02:14:55.816Z,22.58
2022-11-06T02:18:23.490Z,22.98
2022-11-06T02:25:15.734Z,21.93
2022-11-06T02:28:33.236Z,21.28
2022-11-06T02:31:49.026Z,21.45
2022-11-06T02:35:05.945Z,21.58
2022-11-06T02:38:22.945Z,23.38
2022-11-06T02:41:40.112Z,24.70
2022-11-06T02:44:55.735Z,22.30
2022-11-06T02:48:11.397Z,23.25
2022-11-06T02:51:29.322Z,22.60
2022-11-06T02:54:46.954Z,23.10
2022-11-06T02:58:03.863Z,23.63
2022-11-06T03:01:22.828Z,23.33
2022-11-06T03:04:39.994Z,24.08
2022-11-06T03:11:13.984Z,22.35
2022-11-06T03:14:31.672Z,23.78
2022-11-06T03:17:51.456Z,24.15
2022-11-06T03:21:09.670Z,23.60
2022-11-06T03:24:31.276Z,23.40
2022-11-06T03:27:48.826Z,23.80
2022-11-06T03:31:06.496Z,23.53
2022-11-06T03:34:24.170Z,23.65
2022-11-06T03:37:41.080Z,22.63
2022-11-06T03:40:57.111Z,23.08
2022-11-06T03:44:11.552Z,21.88
2022-11-06T03:47:28.724Z,21.70
2022-11-06T03:50:45.513Z,22.25
2022-11-06T03:54:01.246Z,21.30
2022-11-06T03:57:18.130Z,21.58
2022-11-06T04:00:30.643Z,21.38
2022-11-06T04:03:48.548Z,21.13
2022-11-06T04:07:04.707Z,20.73
2022-11-06T04:10:34.164Z,22.63
2022-11-06T04:14:05.402Z,21.98
2022-11-06T04:17:20.470Z,21.65
2022-11-06T04:20:53.660Z,21.58
2022-11-06T04:24:33.741Z,22.18
2022-11-06T04:28:03.121Z,22.00
2022-11-06T04:31:20.477Z,22.35
2022-11-06T04:34:39.592Z,21.23
2022-11-06T04:38:01.241Z,21.88
2022-11-06T04:41:22.188Z,22.03
2022-11-06T04:44:39.496Z,22.10
2022-11-06T04:51:07.884Z,23.43
2022-11-06T04:54:21.080Z,21.95
2022-11-06T04:57:34.057Z,22.20
2022-11-06T05:00:50.743Z,23.23
2022-11-06T05:04:02.958Z,21.33
2022-11-06T05:07:18.931Z,23.58
2022-11-06T05:10:31.302Z,23.10
2022-11-06T05:13:43.756Z,22.00
2022-11-06T05:16:56.210Z,22.13
2022-11-06T05:20:08.764Z,22.98
2022-11-06T05:23:20.920Z,20.95
2022-11-06T05:26:33.050Z,21.50
2022-11-06T05:29:45.375Z,21.43
2022-11-06T05:32:58.599Z,21.58
2022-11-06T05:36:13.153Z,20.95
2022-11-06T05:39:25.322Z,20.75
2022-11-06T05:42:38.080Z,19.88
2022-11-06T05:45:50.130Z,21.08
2022-11-06T05:49:02.382Z,20.45
2022-11-06T05:52:14.662Z,19.68
2022-11-06T05:55:26.940Z,19.68
2022-11-06T05:58:39.488Z,21.00
2022-11-06T06:01:51.946Z,19.98
2022-11-06T06:05:04.376Z,19.43
2022-11-06T06:08:16.791Z,19.20
2022-11-06T06:11:29.948Z,18.65
2022-11-06T06:14:43.192Z,18.90
2022-11-06T06:17:56.188Z,18.85
2022-11-06T06:21:10.314Z,18.30
2022-11-06T06:24:22.766Z,18.48
2022-11-06T06:27:35.068Z,19.18
2022-11-06T06:30:47.530Z,18.83
2022-11-06T06:34:00.039Z,19.80
2022-11-06T06:37:15.320Z,19.73
2022-11-06T06:40:27.375Z,20.43
2022-11-06T06:43:40.074Z,20.30
2022-11-06T06:46:52.709Z,19.65
2022-11-06T06:50:05.122Z,19.88
2022-11-06T06:53:17.625Z,19.80
2022-11-06T06:56:30.080Z,18.85
2022-11-06T06:59:42.921Z,20.10
2022-11-06T07:05:55.256Z,20.35
2022-11-06T07:24:22.733Z,19.73
2022-11-06T07:27:34.993Z,20.33
2022-11-06T07:30:47.164Z,18.65
2022-11-06T07:33:59.841Z,18.05
2022-11-06T07:37:13.156Z,18.25
2022-11-06T07:40:25.739Z,16.65
2022-11-06T07:43:37.925Z,17.83
2022-11-06T07:55:55.942Z,20.13
2022-11-06T07:59:08.627Z,18.48
2022-11-06T08:02:21.712Z,18.08
2022-11-06T08:05:34.283Z,18.35
2022-11-06T08:08:47.074Z,16.40
2022-11-06T08:11:59.551Z,17.30
2022-11-06T08:15:13.908Z,18.53
2022-11-06T08:18:26.230Z,17.25
2022-11-06T08:21:39.417Z,18.88
2022-11-06T08:24:51.941Z,17.08
2022-11-06T08:28:06.003Z,17.73
2022-11-06T08:31:18.786Z,18.43
2022-11-06T08:34:31.455Z,17.98
2022-11-06T08:37:44.208Z,17.18
2022-11-06T08:40:57.280Z,17.50
2022-11-06T08:44:10.086Z,21.50
2022-11-06T08:47:22.614Z,22.45
2022-11-06T08:50:35.735Z,21.68
2022-11-06T08:53:48.564Z,20.48
2022-11-06T08:57:02.150Z,20.45
2022-11-06T09:00:18.095Z,19.83
2022-11-06T09:03:30.879Z,18.93
2022-11-06T09:06:43.338Z,23.78
2022-11-06T09:09:55.571Z,20.23
2022-11-06T09:13:07.944Z,20.43
2022-11-06T09:19:24.421Z,21.18
2022-11-06T09:22:36.896Z,33.83
2022-11-06T09:25:50.281Z,23.83
2022-11-06T09:29:03.157Z,19.33
2022-11-06T09:32:16.130Z,19.20
2022-11-06T09:35:30.857Z,19.28
2022-11-06T09:38:43.401Z,20.10
2022-11-06T09:42:02.985Z,19.50
2022-11-06T09:45:23.331Z,19.95
2022-11-06T09:48:41.088Z,18.70
2022-11-06T09:51:59.491Z,18.45
2022-11-06T09:55:20.662Z,18.05
2022-11-06T09:58:39.835Z,18.78
2022-11-06T10:01:56.658Z,17.70
2022-11-06T10:05:16.727Z,19.40
2022-11-06T10:08:31.838Z,22.13
2022-11-06T10:12:02.862Z,17.93
2022-11-06T10:15:27.034Z,16.70
2022-11-06T10:18:47.449Z,25.50
2022-11-06T10:22:06.709Z,18.90
2022-11-06T10:25:27.252Z,18.08
2022-11-06T10:29:04.145Z,18.35
2022-11-06T10:32:42.531Z,18.68
2022-11-06T10:39:16.874Z,61.98
2022-11-06T10:42:37.826Z,25.45
2022-11-06T10:45:52.698Z,39.63
2022-11-06T10:49:08.626Z,29.80
2022-11-06T10:52:53.055Z,33.20
2022-11-06T10:56:35.684Z,28.23
2022-11-06T10:59:48.340Z,25.10
2022-11-06T11:03:04.215Z,27.83
2022-11-06T11:06:16.940Z,28.53
2022-11-06T11:09:38.162Z,25.20
2022-11-06T11:12:52.894Z,25.70
2022-11-06T11:16:08.725Z,27.73
2022-11-06T11:19:42.072Z,29.98
2022-11-06T11:23:03.353Z,25.45
2022-11-06T11:26:30.995Z,23.90
2022-11-06T11:29:51.372Z,23.75
2022-11-06T11:33:05.149Z,22.40
2022-11-06T11:36:18.492Z,21.00
2022-11-06T11:39:35.522Z,20.83
2022-11-06T11:42:48.051Z,17.90
2022-11-06T11:46:24.605Z,19.60
2022-11-06T11:49:39.768Z,15.45
2022-11-06T11:52:55.056Z,17.23
2022-11-06T11:56:08.201Z,18.90
2022-11-06T11:59:26.767Z,19.50
2022-11-06T12:02:46.761Z,19.75
2022-11-06T12:06:00.763Z,17.58
2022-11-06T12:09:15.000Z,15.58
2022-11-06T12:12:33.924Z,24.65
2022-11-06T12:15:54.420Z,30.60
2022-11-06T12:19:07.697Z,16.38
2022-11-06T12:22:27.999Z,15.83
2022-11-06T12:25:44.731Z,15.40
2022-11-06T12:29:05.116Z,15.65
2022-11-06T12:32:25.914Z,14.13
2022-11-06T12:35:41.946Z,13.95
2022-11-06T12:38:59.336Z,13.73
2022-11-06T12:42:13.749Z,12.70
2022-11-06T12:45:27.091Z,13.03
2022-11-06T12:49:12.474Z,14.70
2022-11-06T12:52:41.020Z,13.85
2022-11-06T12:55:59.926Z,13.23
2022-11-06T12:59:23.316Z,13.90
2022-11-06T13:02:48.530Z,12.55
2022-11-06T13:06:12.038Z,13.20
2022-11-06T13:09:25.986Z,12.75
2022-11-06T13:12:44.981Z,12.43
2022-11-06T13:16:03.333Z,12.43
2022-11-06T13:19:22.963Z,11.15
2022-11-06T13:22:40.496Z,12.13
2022-11-06T13:25:58.373Z,11.80
2022-11-06T13:29:16.731Z,11.60
2022-11-06T13:32:31.968Z,11.23
2022-11-06T13:35:47.950Z,11.13
2022-11-06T13:39:04.945Z,10.73
2022-11-06T13:42:26.680Z,10.68
2022-11-06T13:45:48.272Z,9.55
2022-11-06T13:49:09.758Z,10.10
2022-11-06T13:52:27.300Z,9.45
2022-11-06T13:55:50.163Z,9.58
2022-11-06T13:59:26.500Z,8.93
2022-11-06T14:03:32.809Z,9.50
2022-11-06T14:06:47.661Z,8.65
2022-11-06T14:10:00.321Z,8.60
2022-11-06T14:13:17.536Z,7.98
2022-11-06T14:19:50.504Z,8.73
2022-11-06T14:23:02.169Z,8.90
2022-11-06T14:26:17.807Z,8.80
2022-11-06T14:30:09.599Z,8.75
2022-11-06T14:33:58.933Z,21.03
2022-11-06T14:37:51.827Z,11.28
2022-11-06T14:41:05.183Z,7.98
2022-11-06T14:44:29.861Z,8.80
2022-11-06T14:47:44.811Z,8.60
2022-11-06T14:50:57.874Z,7.30
2022-11-06T14:54:21.717Z,8.33
2022-11-06T14:57:52.842Z,8.03
2022-11-06T15:01:10.421Z,9.33
2022-11-06T15:08:05.844Z,8.38
2022-11-06T15:11:16.142Z,8.23
2022-11-06T15:15:07.722Z,8.43
2022-11-06T15:18:24.792Z,8.45
2022-11-06T15:24:56.871Z,8.45
2022-11-06T15:28:16.434Z,9.33
2022-11-06T15:31:29.310Z,8.95
2022-11-06T15:34:46.568Z,9.48
2022-11-06T15:38:02.770Z,9.10
2022-11-06T15:41:19.593Z,9.87
2022-11-06T15:44:32.377Z,10.10
2022-11-06T15:47:44.743Z,10.05
2022-11-06T15:50:57.563Z,12.18
2022-11-06T15:54:10.336Z,10.45
2022-11-06T15:57:28.226Z,10.83
2022-11-06T16:00:45.865Z,13.70
2022-11-06T16:04:01.196Z,13.50
2022-11-06T16:07:14.157Z,15.08
2022-11-06T16:10:28.714Z,14.48
2022-11-06T16:13:42.518Z,13.28
2022-11-06T16:16:57.029Z,13.90
2022-11-06T16:20:16.877Z,14.20
2022-11-06T16:23:39.023Z,13.18
2022-11-06T16:26:53.645Z,12.65
2022-11-06T16:30:07.918Z,12.88
2022-11-06T16:33:28.820Z,11.50
2022-11-06T16:36:59.713Z,13.23
2022-11-06T16:40:52.992Z,14.23
2022-11-06T16:44:31.664Z,13.80
2022-11-06T16:47:43.724Z,14.08
2022-11-06T16:50:59.558Z,14.33
2022-11-06T16:54:21.341Z,15.10
2022-11-06T16:57:37.862Z,14.60
2022-11-06T17:00:50.979Z,14.40
2022-11-06T17:04:07.664Z,15.65
2022-11-06T17:07:26.140Z,16.63
2022-11-06T17:10:50.037Z,15.53
2022-11-06T17:14:02.548Z,16.65
2022-11-06T17:17:30.661Z,17.80
2022-11-06T17:20:44.388Z,17.48
2022-11-06T17:24:12.144Z,16.43
2022-11-06T17:27:13.160Z,17.03
2022-11-06T17:30:25.554Z,18.45
2022-11-06T17:33:38.303Z,16.43
2022-11-06T17:36:51.229Z,17.45
2022-11-06T17:40:04.292Z,16.80
2022-11-06T17:43:17.216Z,17.75
2022-11-06T17:46:31.440Z,18.98
2022-11-06T17:49:43.975Z,18.33
2022-11-06T17:52:56.364Z,18.63
2022-11-06T17:56:13.214Z,20.90
2022-11-06T17:59:27.037Z,22.95
2022-11-06T18:02:59.689Z,23.10
2022-11-06T18:05:54.375Z,24.00
2022-11-06T18:09:10.890Z,23.78
2022-11-06T18:12:25.784Z,23.38
2022-11-06T18:15:40.945Z,24.43
2022-11-06T18:18:54.141Z,23.80
2022-11-06T18:22:07.086Z,26.03
2022-11-06T18:25:19.955Z,24.70
2022-11-06T18:28:32.884Z,24.05
2022-11-06T18:31:46.020Z,25.08
2022-11-06T18:34:58.746Z,23.40
2022-11-06T18:38:12.120Z,25.13
2022-11-06T18:41:26.599Z,25.63
2022-11-06T18:44:41.290Z,25.08
2022-11-06T18:47:54.013Z,25.08
2022-11-06T18:51:13.571Z,26.38
2022-11-06T18:54:25.930Z,26.93
2022-11-06T18:57:38.543Z,28.00
2022-11-06T19:00:50.897Z,26.73
2022-11-06T19:04:03.918Z,27.80
2022-11-06T19:07:16.558Z,26.13
2022-11-06T19:10:29.544Z,30.15
2022-11-06T19:13:47.450Z,28.85
2022-11-06T19:16:59.375Z,27.65
2022-11-06T19:20:15.355Z,27.90
2022-11-06T19:23:28.593Z,27.48
2022-11-06T19:26:42.039Z,28.20
2022-11-06T19:29:54.691Z,28.25
2022-11-06T20:27:11.218Z,26.83
2022-11-06T21:01:34.579Z,26.18
2022-11-06T21:04:47.519Z,25.25
2022-11-06T21:14:00.526Z,26.05
2022-11-06T21:17:12.912Z,25.43
2022-11-06T21:26:28.612Z,27.58
2022-11-06T21:29:41.273Z,27.38
2022-11-06T21:32:53.119Z,27.35
2022-11-06T21:36:15.972Z,27.65
2022-11-06T21:39:31.711Z,27.08
2022-11-06T21:42:42.455Z,27.98
2022-11-06T21:45:54.389Z,26.80
2022-11-06T21:49:06.574Z,28.33
2022-11-06T21:52:33.088Z,29.48
2022-11-06T21:56:04.100Z,28.13
2022-11-06T21:59:18.764Z,26.53
2022-11-06T22:02:30.875Z,27.45
2022-11-06T22:05:43.170Z,26.68
2022-11-06T22:08:57.046Z,29.58
2022-11-06T22:12:09.873Z,28.48
2022-11-06T22:15:23.118Z,28.05
2022-11-06T22:18:35.913Z,29.45
2022-11-06T22:21:51.904Z,28.18
2022-11-06T22:25:05.675Z,28.95
2022-11-06T22:28:18.199Z,29.53
2022-11-06T22:56:20.962Z,30.63
2022-11-06T23:14:55.457Z,31.00
2022-11-06T23:24:10.135Z,32.15
2022-11-06T23:27:23.658Z,31.80
2022-11-06T23:30:36.122Z,34.53
2022-11-06T23:33:48.782Z,33.23
2022-11-06T23:37:00.708Z,35.50
2022-11-06T23:40:15.745Z,36.23
2022-11-06T23:43:27.503Z,36.30
2022-11-06T23:46:40.093Z,35.83
2022-11-06T23:49:51.815Z,34.65
2022-11-06T23:53:03.818Z,35.75
2022-11-06T23:56:17.670Z,35.70
2022-11-06T23:59:29.890Z,34.00
